sensor_id;sensor_type;location;lat;lon;timestamp;pressure;altitude;pressure_sealevel;temperature;humidity
59419;BME280;45224;50.904;6.038;2022-08-18T00:01:22;99583.44;;;19.43;84.59
59419;BME280;45224;50.904;6.038;2022-08-18T00:02:53;99582.66;;;19.41;84.22
59419;BME280;45224;50.904;6.038;2022-08-18T00:04:24;99579.97;;;19.43;84.23
59419;BME280;45224;50.904;6.038;2022-08-18T00:05:55;99585.41;;;19.38;84.55
59419;BME280;45224;50.904;6.038;2022-08-18T00:07:28;99587.09;;;19.39;84.13
59419;BME280;45224;50.904;6.038;2022-08-18T00:09:03;99587.25;;;19.34;84.50
59419;BME280;45224;50.904;6.038;2022-08-18T00:10:39;99588.97;;;19.36;84.73
59419;BME280;45224;50.904;6.038;2022-08-18T00:12:32;99589.09;;;19.32;85.25
59419;BME280;45224;50.904;6.038;2022-08-18T00:14:04;99592.78;;;19.28;84.84
59419;BME280;45224;50.904;6.038;2022-08-18T00:15:35;99597.97;;;19.30;84.52
59419;BME280;45224;50.904;6.038;2022-08-18T00:17:05;99593.78;;;19.24;85.21
59419;BME280;45224;50.904;6.038;2022-08-18T00:18:35;99586.91;;;19.22;85.48
59419;BME280;45224;50.904;6.038;2022-08-18T00:20:10;99586.91;;;19.22;85.01
59419;BME280;45224;50.904;6.038;2022-08-18T00:21:41;99590.44;;;19.21;84.80
59419;BME280;45224;50.904;6.038;2022-08-18T00:23:11;99590.56;;;19.18;85.06
59419;BME280;45224;50.904;6.038;2022-08-18T00:24:49;99589.78;;;19.15;84.96
59419;BME280;45224;50.904;6.038;2022-08-18T00:26:20;99590.63;;;19.16;84.99
59419;BME280;45224;50.904;6.038;2022-08-18T00:27:51;99590.69;;;19.14;84.96
59419;BME280;45224;50.904;6.038;2022-08-18T00:29:22;99587.38;;;19.09;85.30
59419;BME280;45224;50.904;6.038;2022-08-18T00:30:53;99589.09;;;19.10;85.07
59419;BME280;45224;50.904;6.038;2022-08-18T00:32:29;99585.66;;;19.08;84.96
59419;BME280;45224;50.904;6.038;2022-08-18T00:34:00;99586.53;;;19.09;84.98
59419;BME280;45224;50.904;6.038;2022-08-18T00:35:33;99589.16;;;19.09;85.10
59419;BME280;45224;50.904;6.038;2022-08-18T00:37:04;99586.66;;;19.06;85.11
59419;BME280;45224;50.904;6.038;2022-08-18T00:38:34;99589.34;;;19.04;85.19
59419;BME280;45224;50.904;6.038;2022-08-18T00:40:06;99586.03;;;18.99;85.47
59419;BME280;45224;50.904;6.038;2022-08-18T00:41:37;99591.34;;;18.97;86.10
59419;BME280;45224;50.904;6.038;2022-08-18T00:43:12;99593.06;;;18.97;85.90
59419;BME280;45224;50.904;6.038;2022-08-18T00:44:43;99588.72;;;18.97;85.30
59419;BME280;45224;50.904;6.038;2022-08-18T00:46:18;99587.00;;;18.96;85.57
59419;BME280;45224;50.904;6.038;2022-08-18T00:47:49;99582.72;;;18.94;85.61
59419;BME280;45224;50.904;6.038;2022-08-18T00:49:19;99585.44;;;18.91;86.09
59419;BME280;45224;50.904;6.038;2022-08-18T00:50:56;99587.06;;;18.95;85.38
59419;BME280;45224;50.904;6.038;2022-08-18T00:52:27;99586.16;;;18.96;85.17
59419;BME280;45224;50.904;6.038;2022-08-18T00:54:05;99580.03;;;18.95;84.95
59419;BME280;45224;50.904;6.038;2022-08-18T00:55:39;99580.16;;;18.92;85.01
59419;BME280;45224;50.904;6.038;2022-08-18T00:57:11;99575.16;;;18.86;85.15
59419;BME280;45224;50.904;6.038;2022-08-18T00:58:49;99574.28;;;18.86;85.18
59419;BME280;45224;50.904;6.038;2022-08-18T01:00:21;99583.09;;;18.85;85.26
59419;BME280;45224;50.904;6.038;2022-08-18T01:01:53;99579.53;;;18.86;85.20
59419;BME280;45224;50.904;6.038;2022-08-18T01:03:33;99581.38;;;18.84;85.24
59419;BME280;45224;50.904;6.038;2022-08-18T01:05:17;99584.78;;;18.86;85.18
59419;BME280;45224;50.904;6.038;2022-08-18T01:06:57;99569.97;;;18.85;84.98
59419;BME280;45224;50.904;6.038;2022-08-18T01:08:28;99573.38;;;18.87;85.22
59419;BME280;45224;50.904;6.038;2022-08-18T01:09:58;99569.06;;;18.86;85.36
59419;BME280;45224;50.904;6.038;2022-08-18T01:11:29;99576.84;;;18.87;85.51
59419;BME280;45224;50.904;6.038;2022-08-18T01:12:59;99574.19;;;18.89;85.47
59419;BME280;45224;50.904;6.038;2022-08-18T01:14:30;99576.78;;;18.89;85.33
59419;BME280;45224;50.904;6.038;2022-08-18T01:16:01;99579.31;;;18.92;85.77
59419;BME280;45224;50.904;6.038;2022-08-18T01:17:55;99580.22;;;18.91;85.66
59419;BME280;45224;50.904;6.038;2022-08-18T01:19:44;99575.78;;;18.93;85.54
59419;BME280;45224;50.904;6.038;2022-08-18T01:21:35;99583.59;;;18.94;85.84
59419;BME280;45224;50.904;6.038;2022-08-18T01:23:21;99584.44;;;18.95;85.42
59419;BME280;45224;50.904;6.038;2022-08-18T01:24:54;99590.47;;;18.97;85.60
59419;BME280;45224;50.904;6.038;2022-08-18T01:26:46;99588.72;;;18.97;85.48
59419;BME280;45224;50.904;6.038;2022-08-18T01:28:19;99586.88;;;19.00;85.61
59419;BME280;45224;50.904;6.038;2022-08-18T01:29:52;99588.56;;;19.01;85.59
59419;BME280;45224;50.904;6.038;2022-08-18T01:31:31;99587.00;;;18.96;85.86
59419;BME280;45224;50.904;6.038;2022-08-18T01:33:03;99593.06;;;18.97;85.41
59419;BME280;45224;50.904;6.038;2022-08-18T01:34:39;99593.91;;;18.99;85.47
59419;BME280;45224;50.904;6.038;2022-08-18T01:36:18;99594.00;;;18.96;85.41
59419;BME280;45224;50.904;6.038;2022-08-18T01:37:53;99595.69;;;18.97;85.17
59419;BME280;45224;50.904;6.038;2022-08-18T01:39:23;99595.69;;;18.97;85.34
59419;BME280;45224;50.904;6.038;2022-08-18T01:40:54;99594.78;;;18.98;85.44
59419;BME280;45224;50.904;6.038;2022-08-18T01:42:25;99601.75;;;18.99;85.47
59419;BME280;45224;50.904;6.038;2022-08-18T01:43:56;99601.00;;;18.95;85.71
59419;BME280;45224;50.904;6.038;2022-08-18T01:45:28;99601.88;;;18.96;85.51
59419;BME280;45224;50.904;6.038;2022-08-18T01:46:58;99603.63;;;18.95;85.63
59419;BME280;45224;50.904;6.038;2022-08-18T01:48:30;99608.91;;;18.94;85.71
59419;BME280;45224;50.904;6.038;2022-08-18T01:50:03;99601.34;;;18.86;86.41
59419;BME280;45224;50.904;6.038;2022-08-18T01:51:35;99609.34;;;18.82;86.60
59419;BME280;45224;50.904;6.038;2022-08-18T01:53:10;99604.13;;;18.82;86.68
59419;BME280;45224;50.904;6.038;2022-08-18T01:54:40;99613.81;;;18.78;86.94
59419;BME280;45224;50.904;6.038;2022-08-18T01:56:12;99613.78;;;18.79;86.88
59419;BME280;45224;50.904;6.038;2022-08-18T01:57:46;99611.50;;;18.70;87.59
59419;BME280;45224;50.904;6.038;2022-08-18T01:59:17;99608.88;;;18.70;87.41
59419;BME280;45224;50.904;6.038;2022-08-18T02:00:47;99616.81;;;18.69;87.10
59419;BME280;45224;50.904;6.038;2022-08-18T02:02:24;99615.03;;;18.69;87.11
59419;BME280;45224;50.904;6.038;2022-08-18T02:03:57;99618.69;;;18.65;87.59
59419;BME280;45224;50.904;6.038;2022-08-18T02:05:39;99612.56;;;18.65;87.55
59419;BME280;45224;50.904;6.038;2022-08-18T02:07:12;99610.00;;;18.63;87.63
59419;BME280;45224;50.904;6.038;2022-08-18T02:08:42;99610.00;;;18.63;87.59
59419;BME280;45224;50.904;6.038;2022-08-18T02:10:13;99618.69;;;18.65;87.31
59419;BME280;45224;50.904;6.038;2022-08-18T02:11:44;99610.13;;;18.60;87.49
59419;BME280;45224;50.904;6.038;2022-08-18T02:13:14;99604.03;;;18.59;88.00
59419;BME280;45224;50.904;6.038;2022-08-18T02:14:45;99601.47;;;18.58;87.60
59419;BME280;45224;50.904;6.038;2022-08-18T02:16:15;99599.63;;;18.60;87.48
59419;BME280;45224;50.904;6.038;2022-08-18T02:17:46;99597.13;;;18.57;88.07
59419;BME280;45224;50.904;6.038;2022-08-18T02:19:16;99600.56;;;18.59;87.52
59419;BME280;45224;50.904;6.038;2022-08-18T02:20:47;99601.56;;;18.55;87.99
59419;BME280;45224;50.904;6.038;2022-08-18T02:22:19;99598.16;;;18.53;88.03
59419;BME280;45224;50.904;6.038;2022-08-18T02:23:50;99596.34;;;18.55;87.94
59419;BME280;45224;50.904;6.038;2022-08-18T02:25:20;99601.63;;;18.53;88.00
59419;BME280;45224;50.904;6.038;2022-08-18T02:26:52;99601.91;;;18.46;88.98
59419;BME280;45224;50.904;6.038;2022-08-18T02:28:22;99603.63;;;18.47;88.09
59419;BME280;45224;50.904;6.038;2022-08-18T02:29:53;99591.41;;;18.46;87.69
59419;BME280;45224;50.904;6.038;2022-08-18T02:31:24;99591.56;;;18.42;87.64
59419;BME280;45224;50.904;6.038;2022-08-18T02:32:56;99590.75;;;18.40;88.42
59419;BME280;45224;50.904;6.038;2022-08-18T02:34:27;99592.50;;;18.40;87.86
59419;BME280;45224;50.904;6.038;2022-08-18T02:35:57;99593.47;;;18.37;87.71
59419;BME280;45224;50.904;6.038;2022-08-18T02:37:27;99590.09;;;18.34;87.97
59419;BME280;45224;50.904;6.038;2022-08-18T02:39:00;99583.09;;;18.34;87.69
59419;BME280;45224;50.904;6.038;2022-08-18T02:40:31;99590.94;;;18.34;87.74
59419;BME280;45224;50.904;6.038;2022-08-18T02:42:06;99577.03;;;18.34;87.35
59419;BME280;45224;50.904;6.038;2022-08-18T02:43:38;99586.75;;;18.30;87.81
59419;BME280;45224;50.904;6.038;2022-08-18T02:45:12;99591.97;;;18.30;87.80
59419;BME280;45224;50.904;6.038;2022-08-18T02:46:43;99584.13;;;18.30;87.88
59419;BME280;45224;50.904;6.038;2022-08-18T02:48:13;99585.13;;;18.26;87.72
59419;BME280;45224;50.904;6.038;2022-08-18T02:49:44;99587.84;;;18.23;88.14
59419;BME280;45224;50.904;6.038;2022-08-18T02:51:15;99587.75;;;18.26;87.92
59419;BME280;45224;50.904;6.038;2022-08-18T02:52:46;99590.31;;;18.28;87.57
59419;BME280;45224;50.904;6.038;2022-08-18T02:54:17;99595.59;;;18.26;88.20
59419;BME280;45224;50.904;6.038;2022-08-18T02:55:48;99584.28;;;18.25;88.04
59419;BME280;45224;50.904;6.038;2022-08-18T02:57:19;99580.81;;;18.25;88.28
59419;BME280;45224;50.904;6.038;2022-08-18T02:58:54;99580.88;;;18.23;88.66
59419;BME280;45224;50.904;6.038;2022-08-18T03:00:25;99574.78;;;18.23;88.74
59419;BME280;45224;50.904;6.038;2022-08-18T03:01:55;99577.28;;;18.26;88.80
59419;BME280;45224;50.904;6.038;2022-08-18T03:03:26;99583.34;;;18.28;88.67
59419;BME280;45224;50.904;6.038;2022-08-18T03:04:56;99572.88;;;18.28;88.63
59419;BME280;45224;50.904;6.038;2022-08-18T03:06:28;99572.06;;;18.26;89.21
59419;BME280;45224;50.904;6.038;2022-08-18T03:07:59;99573.81;;;18.25;90.06
59419;BME280;45224;50.904;6.038;2022-08-18T03:09:30;99578.09;;;18.28;90.02
59419;BME280;45224;50.904;6.038;2022-08-18T03:11:01;99578.31;;;18.22;92.09
59419;BME280;45224;50.904;6.038;2022-08-18T03:12:31;99579.16;;;18.22;91.32
59419;BME280;45224;50.904;6.038;2022-08-18T03:14:03;99573.94;;;18.22;92.10
59419;BME280;45224;50.904;6.038;2022-08-18T03:15:34;99573.72;;;18.29;90.84
59419;BME280;45224;50.904;6.038;2022-08-18T03:17:06;99562.41;;;18.28;91.26
59419;BME280;45224;50.904;6.038;2022-08-18T03:18:37;99571.94;;;18.29;91.73
59419;BME280;45224;50.904;6.038;2022-08-18T03:20:10;99564.03;;;18.31;91.20
59419;BME280;45224;50.904;6.038;2022-08-18T03:21:43;99562.28;;;18.31;91.45
59419;BME280;45224;50.904;6.038;2022-08-18T03:23:14;99554.50;;;18.30;91.50
59419;BME280;45224;50.904;6.038;2022-08-18T03:24:44;99565.81;;;18.30;91.88
59419;BME280;45224;50.904;6.038;2022-08-18T03:26:16;99553.72;;;18.26;92.24
59419;BME280;45224;50.904;6.038;2022-08-18T03:27:46;99552.03;;;18.25;92.04
59419;BME280;45224;50.904;6.038;2022-08-18T03:29:18;99554.59;;;18.27;92.11
59419;BME280;45224;50.904;6.038;2022-08-18T03:30:48;99553.88;;;18.21;93.87
59419;BME280;45224;50.904;6.038;2022-08-18T03:32:18;99549.84;;;18.13;94.94
59419;BME280;45224;50.904;6.038;2022-08-18T03:33:50;99551.31;;;18.20;93.85
59419;BME280;45224;50.904;6.038;2022-08-18T03:35:21;99544.41;;;18.19;93.72
59419;BME280;45224;50.904;6.038;2022-08-18T03:36:52;99553.03;;;18.21;93.40
59419;BME280;45224;50.904;6.038;2022-08-18T03:38:22;99554.09;;;18.17;94.79
59419;BME280;45224;50.904;6.038;2022-08-18T03:39:53;99559.53;;;18.11;95.75
59419;BME280;45224;50.904;6.038;2022-08-18T03:41:26;99561.06;;;18.16;94.66
59419;BME280;45224;50.904;6.038;2022-08-18T03:42:57;99559.31;;;18.17;94.75
59419;BME280;45224;50.904;6.038;2022-08-18T03:44:33;99551.50;;;18.15;94.71
59419;BME280;45224;50.904;6.038;2022-08-18T03:46:08;99556.69;;;18.17;94.59
59419;BME280;45224;50.904;6.038;2022-08-18T03:47:39;99560.22;;;18.16;95.13
59419;BME280;45224;50.904;6.038;2022-08-18T03:49:09;99565.34;;;18.19;94.63
59419;BME280;45224;50.904;6.038;2022-08-18T03:50:41;99565.19;;;18.23;93.99
59419;BME280;45224;50.904;6.038;2022-08-18T03:52:11;99567.75;;;18.25;94.50
59419;BME280;45224;50.904;6.038;2022-08-18T03:53:42;99578.09;;;18.28;94.26
59419;BME280;45224;50.904;6.038;2022-08-18T03:55:16;99569.22;;;18.32;93.62
59419;BME280;45224;50.904;6.038;2022-08-18T03:56:47;99565.72;;;18.33;93.60
59419;BME280;45224;50.904;6.038;2022-08-18T03:58:18;99570.47;;;18.22;95.52
59419;BME280;45224;50.904;6.038;2022-08-18T03:59:49;99564.19;;;18.26;94.86
59419;BME280;45224;50.904;6.038;2022-08-18T04:01:22;99572.88;;;18.28;94.03
59419;BME280;45224;50.904;6.038;2022-08-18T04:02:54;99572.88;;;18.28;94.46
59419;BME280;45224;50.904;6.038;2022-08-18T04:04:26;99571.47;;;18.18;96.23
59419;BME280;45224;50.904;6.038;2022-08-18T04:05:57;99575.75;;;18.20;95.60
59419;BME280;45224;50.904;6.038;2022-08-18T04:07:28;99567.84;;;18.22;95.46
59419;BME280;45224;50.904;6.038;2022-08-18T04:09:01;99563.47;;;18.22;95.02
59419;BME280;45224;50.904;6.038;2022-08-18T04:10:33;99566.91;;;18.23;95.14
59419;BME280;45224;50.904;6.038;2022-08-18T04:12:06;99567.22;;;18.15;96.77
59419;BME280;45224;50.904;6.038;2022-08-18T04:13:41;99569.00;;;18.13;96.36
59419;BME280;45224;50.904;6.038;2022-08-18T04:15:12;99572.91;;;18.01;98.60
59419;BME280;45224;50.904;6.038;2022-08-18T04:16:43;99577.44;;;17.96;99.31
59419;BME280;45224;50.904;6.038;2022-08-18T04:18:14;99579.03;;;18.00;97.82
59419;BME280;45224;50.904;6.038;2022-08-18T04:19:44;99570.19;;;18.04;97.65
59419;BME280;45224;50.904;6.038;2022-08-18T04:21:16;99570.88;;;17.83;100.00
59419;BME280;45224;50.904;6.038;2022-08-18T04:22:47;99570.59;;;17.92;99.70
59419;BME280;45224;50.904;6.038;2022-08-18T04:24:18;99573.84;;;17.99;98.26
59419;BME280;45224;50.904;6.038;2022-08-18T04:25:56;99573.91;;;17.97;99.20
59419;BME280;45224;50.904;6.038;2022-08-18T04:27:27;99578.97;;;18.02;98.95
59419;BME280;45224;50.904;6.038;2022-08-18T04:28:58;99582.38;;;18.05;97.95
59419;BME280;45224;50.904;6.038;2022-08-18T04:30:30;99582.25;;;18.09;97.49
59419;BME280;45224;50.904;6.038;2022-08-18T04:32:01;99583.16;;;18.08;98.37
59419;BME280;45224;50.904;6.038;2022-08-18T04:33:36;99590.91;;;18.11;98.23
59419;BME280;45224;50.904;6.038;2022-08-18T04:35:07;99577.88;;;18.09;98.49
59419;BME280;45224;50.904;6.038;2022-08-18T04:36:38;99586.03;;;18.00;100.00
59419;BME280;45224;50.904;6.038;2022-08-18T04:38:09;99593.63;;;18.08;99.10
59419;BME280;45224;50.904;6.038;2022-08-18T04:39:40;99592.69;;;18.09;99.05
59419;BME280;45224;50.904;6.038;2022-08-18T04:41:11;99580.44;;;18.11;97.81
59419;BME280;45224;50.904;6.038;2022-08-18T04:42:43;99585.88;;;18.04;98.75
59419;BME280;45224;50.904;6.038;2022-08-18T04:44:14;99586.78;;;18.03;99.27
59419;BME280;45224;50.904;6.038;2022-08-18T04:45:46;99590.38;;;18.01;99.72
59419;BME280;45224;50.904;6.038;2022-08-18T04:47:17;99599.84;;;18.03;98.81
59419;BME280;45224;50.904;6.038;2022-08-18T04:48:49;99599.97;;;18.00;99.42
59419;BME280;45224;50.904;6.038;2022-08-18T04:50:20;99600.94;;;17.98;99.66
59419;BME280;45224;50.904;6.038;2022-08-18T04:51:52;99603.69;;;17.93;100.00
59419;BME280;45224;50.904;6.038;2022-08-18T04:53:42;99609.03;;;17.90;100.00
59419;BME280;45224;50.904;6.038;2022-08-18T04:55:16;99601.09;;;17.93;100.00
59419;BME280;45224;50.904;6.038;2022-08-18T04:56:47;99601.97;;;17.92;100.00
59419;BME280;45224;50.904;6.038;2022-08-18T04:58:19;99601.78;;;17.98;99.64
59419;BME280;45224;50.904;6.038;2022-08-18T04:59:50;99611.75;;;17.85;100.00
59419;BME280;45224;50.904;6.038;2022-08-18T05:01:24;99613.97;;;17.71;100.00
59419;BME280;45224;50.904;6.038;2022-08-18T05:02:55;99618.25;;;17.74;100.00
59419;BME280;45224;50.904;6.038;2022-08-18T05:04:26;99613.59;;;17.55;100.00
59419;BME280;45224;50.904;6.038;2022-08-18T05:05:58;99618.50;;;17.66;100.00
59419;BME280;45224;50.904;6.038;2022-08-18T05:07:29;99617.44;;;17.72;100.00
59419;BME280;45224;50.904;6.038;2022-08-18T05:09:04;99619.56;;;17.60;100.00
59419;BME280;45224;50.904;6.038;2022-08-18T05:10:34;99630.25;;;17.52;100.00
59419;BME280;45224;50.904;6.038;2022-08-18T05:12:05;99629.00;;;17.64;100.00
59419;BME280;45224;50.904;6.038;2022-08-18T05:13:36;99614.00;;;17.69;100.00
59419;BME280;45224;50.904;6.038;2022-08-18T05:15:07;99635.75;;;17.72;100.00
59419;BME280;45224;50.904;6.038;2022-08-18T05:16:38;99632.13;;;17.76;100.00
59419;BME280;45224;50.904;6.038;2022-08-18T05:18:09;99623.34;;;17.78;100.00
59419;BME280;45224;50.904;6.038;2022-08-18T05:19:40;99631.94;;;17.82;100.00
59419;BME280;45224;50.904;6.038;2022-08-18T05:21:13;99630.13;;;17.84;100.00
59419;BME280;45224;50.904;6.038;2022-08-18T05:22:44;99629.16;;;17.88;100.00
59419;BME280;45224;50.904;6.038;2022-08-18T05:24:15;99634.34;;;17.90;100.00
59419;BME280;45224;50.904;6.038;2022-08-18T05:25:46;99630.84;;;17.89;99.93
59419;BME280;45224;50.904;6.038;2022-08-18T05:27:16;99633.38;;;17.92;99.81
59419;BME280;45224;50.904;6.038;2022-08-18T05:28:47;99632.47;;;17.93;100.00
59419;BME280;45224;50.904;6.038;2022-08-18T05:30:17;99632.31;;;17.98;99.39
59419;BME280;45224;50.904;6.038;2022-08-18T05:31:49;99631.44;;;17.97;99.60
59419;BME280;45224;50.904;6.038;2022-08-18T05:33:20;99637.50;;;17.99;99.33
59419;BME280;45224;50.904;6.038;2022-08-18T05:34:50;99637.56;;;17.98;99.54
59419;BME280;45224;50.904;6.038;2022-08-18T05:36:44;99634.78;;;18.02;98.90
59419;BME280;45224;50.904;6.038;2022-08-18T05:38:32;99635.72;;;18.00;99.46
59419;BME280;45224;50.904;6.038;2022-08-18T05:40:06;99632.16;;;18.02;98.88
59419;BME280;45224;50.904;6.038;2022-08-18T05:41:37;99633.16;;;17.98;99.92
59419;BME280;45224;50.904;6.038;2022-08-18T05:43:09;99636.56;;;18.00;99.26
59419;BME280;45224;50.904;6.038;2022-08-18T05:44:46;99633.75;;;18.06;98.93
59419;BME280;45224;50.904;6.038;2022-08-18T05:46:16;99637.25;;;18.07;99.28
59419;BME280;45224;50.904;6.038;2022-08-18T05:47:47;99637.25;;;18.07;99.23
59419;BME280;45224;50.904;6.038;2022-08-18T05:49:19;99638.94;;;18.08;98.94
59419;BME280;45224;50.904;6.038;2022-08-18T05:50:50;99645.91;;;18.09;99.33
59419;BME280;45224;50.904;6.038;2022-08-18T05:52:37;99651.13;;;18.09;99.67
59419;BME280;45224;50.904;6.038;2022-08-18T05:54:09;99638.16;;;18.06;99.22
59419;BME280;45224;50.904;6.038;2022-08-18T05:56:02;99645.91;;;18.09;99.43
59419;BME280;45224;50.904;6.038;2022-08-18T05:57:56;99645.91;;;18.09;99.75
59419;BME280;45224;50.904;6.038;2022-08-18T05:59:34;99647.59;;;18.10;99.82
59419;BME280;45224;50.904;6.038;2022-08-18T06:01:12;99650.16;;;18.12;100.00
59419;BME280;45224;50.904;6.038;2022-08-18T06:04:26;99663.09;;;18.16;99.56
59419;BME280;45224;50.904;6.038;2022-08-18T06:06:02;99654.44;;;18.14;99.91
59419;BME280;45224;50.904;6.038;2022-08-18T06:07:52;99656.06;;;18.18;99.84
59419;BME280;45224;50.904;6.038;2022-08-18T06:09:40;99658.72;;;18.17;100.00
59419;BME280;45224;50.904;6.038;2022-08-18T06:11:13;99672.59;;;18.19;100.00
59419;BME280;45224;50.904;6.038;2022-08-18T06:12:53;99668.22;;;18.19;100.00
59419;BME280;45224;50.904;6.038;2022-08-18T06:14:24;99669.06;;;18.20;99.81
59419;BME280;45224;50.904;6.038;2022-08-18T06:16:10;99668.16;;;18.21;100.00
59419;BME280;45224;50.904;6.038;2022-08-18T06:24:52;99663.97;;;18.17;100.00
59419;BME280;45224;50.904;6.038;2022-08-18T06:26:35;99667.38;;;18.19;100.00
59419;BME280;45224;50.904;6.038;2022-08-18T06:28:14;99664.66;;;18.22;100.00
59419;BME280;45224;50.904;6.038;2022-08-18T06:30:17;99656.81;;;18.22;100.00
59419;BME280;45224;50.904;6.038;2022-08-18T06:34:19;99664.00;;;18.15;100.00
59419;BME280;45224;50.904;6.038;2022-08-18T06:35:58;99663.84;;;18.20;100.00
59419;BME280;45224;50.904;6.038;2022-08-18T06:39:38;99667.28;;;18.22;100.00
59419;BME280;45224;50.904;6.038;2022-08-18T06:41:41;99674.16;;;18.24;100.00
59419;BME280;45224;50.904;6.038;2022-08-18T06:43:14;99669.84;;;18.23;100.00
59419;BME280;45224;50.904;6.038;2022-08-18T06:44:52;99677.69;;;18.23;100.00
59419;BME280;45224;50.904;6.038;2022-08-18T06:46:35;99679.34;;;18.26;99.96
59419;BME280;45224;50.904;6.038;2022-08-18T06:48:20;99682.78;;;18.28;100.00
59419;BME280;45224;50.904;6.038;2022-08-18T06:51:36;99682.66;;;18.31;100.00
59419;BME280;45224;50.904;6.038;2022-08-18T06:53:07;99680.97;;;18.30;99.65
59419;BME280;45224;50.904;6.038;2022-08-18T06:54:38;99684.38;;;18.32;100.00
59419;BME280;45224;50.904;6.038;2022-08-18T06:56:25;99686.09;;;18.33;99.98
59419;BME280;45224;50.904;6.038;2022-08-18T06:58:02;99679.13;;;18.32;99.64
59419;BME280;45224;50.904;6.038;2022-08-18T06:59:35;99686.00;;;18.36;99.31
59419;BME280;45224;50.904;6.038;2022-08-18T07:01:07;99685.88;;;18.39;99.31
59419;BME280;45224;50.904;6.038;2022-08-18T07:02:49;99687.53;;;18.42;99.34
59419;BME280;45224;50.904;6.038;2022-08-18T07:04:41;99688.31;;;18.44;99.41
59419;BME280;45224;50.904;6.038;2022-08-18T07:08:12;99682.13;;;18.47;99.07
59419;BME280;45224;50.904;6.038;2022-08-18T07:09:44;99675.19;;;18.46;99.19
59419;BME280;45224;50.904;6.038;2022-08-18T07:11:31;99678.63;;;18.48;99.19
59419;BME280;45224;50.904;6.038;2022-08-18T07:13:26;99677.66;;;18.50;98.82
59419;BME280;45224;50.904;6.038;2022-08-18T07:14:59;99681.25;;;18.48;99.22
59419;BME280;45224;50.904;6.038;2022-08-18T07:16:32;99688.00;;;18.53;98.74
59419;BME280;45224;50.904;6.038;2022-08-18T07:18:05;99683.66;;;18.54;98.73
59419;BME280;45224;50.904;6.038;2022-08-18T07:19:36;99685.44;;;18.52;99.84
59419;BME280;45224;50.904;6.038;2022-08-18T07:21:07;99684.41;;;18.57;99.32
59419;BME280;45224;50.904;6.038;2022-08-18T07:24:46;99683.31;;;18.63;98.65
59419;BME280;45224;50.904;6.038;2022-08-18T07:26:18;99680.66;;;18.65;98.52
59419;BME280;45224;50.904;6.038;2022-08-18T07:27:49;99685.72;;;18.69;97.91
59419;BME280;45224;50.904;6.038;2022-08-18T07:29:21;99676.88;;;18.73;97.73
59419;BME280;45224;50.904;6.038;2022-08-18T07:30:52;99690.84;;;18.72;97.92
59419;BME280;45224;50.904;6.038;2022-08-18T07:32:44;99674.31;;;18.72;97.67
59419;BME280;45224;50.904;6.038;2022-08-18T07:34:21;99675.09;;;18.74;97.88
59419;BME280;45224;50.904;6.038;2022-08-18T07:36:00;99676.63;;;18.79;97.66
59419;BME280;45224;50.904;6.038;2022-08-18T07:37:45;99677.56;;;18.78;97.74
59419;BME280;45224;50.904;6.038;2022-08-18T07:39:28;99682.78;;;18.78;97.40
59419;BME280;45224;50.904;6.038;2022-08-18T07:41:05;99680.88;;;18.84;96.91
59419;BME280;45224;50.904;6.038;2022-08-18T07:42:43;99682.72;;;18.80;97.12
59419;BME280;45224;50.904;6.038;2022-08-18T07:44:22;99675.16;;;18.72;97.73
59419;BME280;45224;50.904;6.038;2022-08-18T07:46:04;99682.16;;;18.72;97.79
59419;BME280;45224;50.904;6.038;2022-08-18T07:49:19;99688.13;;;18.75;97.39
59419;BME280;45224;50.904;6.038;2022-08-18T07:50:55;99694.25;;;18.74;97.53
59419;BME280;45224;50.904;6.038;2022-08-18T07:52:39;99692.28;;;18.81;97.06
59419;BME280;45224;50.904;6.038;2022-08-18T07:55:56;99686.81;;;18.89;96.56
59419;BME280;45224;50.904;6.038;2022-08-18T08:03:14;99698.53;;;19.02;96.26
59419;BME280;45224;50.904;6.038;2022-08-18T08:06:48;99704.50;;;19.07;95.40
59419;BME280;45224;50.904;6.038;2022-08-18T08:08:38;99698.28;;;19.10;95.84
59419;BME280;45224;50.904;6.038;2022-08-18T08:12:01;99693.91;;;19.10;95.39
59419;BME280;45224;50.904;6.038;2022-08-18T08:13:56;99695.50;;;19.14;95.18
59419;BME280;45224;50.904;6.038;2022-08-18T08:17:29;99702.44;;;19.15;95.94
59419;BME280;45224;50.904;6.038;2022-08-18T08:20:54;99704.84;;;19.22;95.61
59419;BME280;45224;50.904;6.038;2022-08-18T08:24:25;99700.19;;;19.30;95.23
59419;BME280;45224;50.904;6.038;2022-08-18T08:26:21;99700.06;;;19.33;95.03
59419;BME280;45224;50.904;6.038;2022-08-18T08:34:52;99701.34;;;19.45;94.22
59419;BME280;45224;50.904;6.038;2022-08-18T08:36:32;99702.19;;;19.45;93.26
59419;BME280;45224;50.904;6.038;2022-08-18T08:38:09;99709.00;;;19.51;93.27
59419;BME280;45224;50.904;6.038;2022-08-18T08:39:49;99713.38;;;19.50;93.18
59419;BME280;45224;50.904;6.038;2022-08-18T08:41:28;99711.56;;;19.52;93.12
59419;BME280;45224;50.904;6.038;2022-08-18T08:43:06;99701.00;;;19.54;92.96
59419;BME280;45224;50.904;6.038;2022-08-18T08:44:44;99709.59;;;19.58;92.73
59419;BME280;45224;50.904;6.038;2022-08-18T08:46:20;99702.75;;;19.53;92.72
59419;BME280;45224;50.904;6.038;2022-08-18T08:49:43;99720.09;;;19.58;93.01
59419;BME280;45224;50.904;6.038;2022-08-18T08:51:27;99716.44;;;19.62;92.14
59419;BME280;45224;50.904;6.038;2022-08-18T08:53:20;99720.66;;;19.66;91.53
59419;BME280;45224;50.904;6.038;2022-08-18T08:54:57;99723.28;;;19.66;91.76
59419;BME280;45224;50.904;6.038;2022-08-18T08:56:35;99724.13;;;19.66;91.70
59419;BME280;45224;50.904;6.038;2022-08-18T09:00:00;99723.94;;;19.71;91.67
59419;BME280;45224;50.904;6.038;2022-08-18T09:01:54;99717.81;;;19.72;91.25
59419;BME280;45224;50.904;6.038;2022-08-18T09:03:44;99722.03;;;19.76;91.50
59419;BME280;45224;50.904;6.038;2022-08-18T09:05:27;99724.66;;;19.76;91.37
59419;BME280;45224;50.904;6.038;2022-08-18T09:07:15;99716.66;;;19.79;90.92
59419;BME280;45224;50.904;6.038;2022-08-18T09:09:15;99715.75;;;19.80;90.81
59419;BME280;45224;50.904;6.038;2022-08-18T09:22:19;99704.66;;;19.96;89.19